createdAt,value
2022-08-23T00:01:14.945Z,63.25
2022-08-23T00:07:17.289Z,63.00
2022-08-23T00:13:19.256Z,61.75
2022-08-23T00:19:23.055Z,61.86
2022-08-23T00:25:25.153Z,62.08
2022-08-23T00:31:27.179Z,63.42
2022-08-23T00:37:32.382Z,65.05
2022-08-23T00:44:00.149Z,66.27
2022-08-23T00:50:36.678Z,65.24
2022-08-23T00:56:40.369Z,64.88
2022-08-23T01:02:44.988Z,65.03
2022-08-23T01:08:54.571Z,66.22
2022-08-23T01:15:09.593Z,66.50
2022-08-23T01:21:53.146Z,65.63
2022-08-23T01:27:57.514Z,69.11
2022-08-23T01:34:08.085Z,69.83
2022-08-23T01:40:10.863Z,69.54
2022-08-23T01:46:20.590Z,68.41
2022-08-23T01:52:22.561Z,67.96
2022-08-23T01:58:24.942Z,68.09
2022-08-23T02:04:27.862Z,69.94
2022-08-23T02:10:29.870Z,70.60
2022-08-23T02:16:39.599Z,72.60
2022-08-23T02:22:43.808Z,73.17
2022-08-23T02:28:46.490Z,71.14
2022-08-23T02:34:51.143Z,73.80
2022-08-23T02:41:07.515Z,74.75
2022-08-23T02:47:11.899Z,73.66
2022-08-23T02:53:14.201Z,75.74
2022-08-23T02:59:16.253Z,76.25
2022-08-23T03:05:18.503Z,76.97
2022-08-23T03:11:23.339Z,77.49
2022-08-23T03:17:25.403Z,77.09
2022-08-23T03:23:27.756Z,76.84
2022-08-23T03:29:29.809Z,77.05
2022-08-23T03:35:31.909Z,76.91
2022-08-23T03:41:34.270Z,76.44
2022-08-23T03:47:36.363Z,75.70
2022-08-23T03:53:38.349Z,75.18
2022-08-23T03:59:42.600Z,74.45
2022-08-23T04:05:44.878Z,75.21
2022-08-23T04:11:46.837Z,76.42
2022-08-23T04:17:48.904Z,75.25
2022-08-23T04:23:52.751Z,76.21
2022-08-23T04:29:55.130Z,77.02
2022-08-23T04:35:57.557Z,77.12
2022-08-23T04:42:18.272Z,76.91
2022-08-23T04:48:20.231Z,76.18
2022-08-23T04:54:23.111Z,75.75
2022-08-23T05:00:28.208Z,75.38
2022-08-23T05:06:31.499Z,73.30
2022-08-23T05:12:34.366Z,73.37
2022-08-23T05:18:36.634Z,72.97
2022-08-23T05:24:38.646Z,71.19
2022-08-23T05:30:40.798Z,69.45
2022-08-23T05:36:55.933Z,68.33
2022-08-23T05:42:58.297Z,67.81
2022-08-23T05:49:00.328Z,67.07
2022-08-23T05:55:02.798Z,66.77
2022-08-23T06:01:05.097Z,66.33
2022-08-23T06:07:07.233Z,65.00
2022-08-23T06:13:09.228Z,65.11
2022-08-23T06:19:11.904Z,63.26
2022-08-23T06:25:13.886Z,62.82
2022-08-23T06:31:36.660Z,62.19
2022-08-23T06:37:39.381Z,60.47
2022-08-23T06:43:41.466Z,59.94
2022-08-23T06:49:51.095Z,57.90
2022-08-23T06:56:00.478Z,52.57
2022-08-23T07:02:06.609Z,43.74
2022-08-23T07:08:08.623Z,45.10
2022-08-23T07:14:16.271Z,46.98
2022-08-23T07:20:18.353Z,47.53
2022-08-23T07:26:21.527Z,48.52
2022-08-23T07:32:23.527Z,47.87
2022-08-23T07:38:25.533Z,48.47
2022-08-23T07:44:34.285Z,47.80
2022-08-23T07:50:36.283Z,46.17
2022-08-23T07:56:38.676Z,47.10
2022-08-23T08:02:41.215Z,46.10
2022-08-23T08:08:44.557Z,46.12
2022-08-23T08:14:48.438Z,45.38
2022-08-23T08:20:51.276Z,43.64
2022-08-23T08:26:53.385Z,42.45
2022-08-23T08:32:55.587Z,42.24
2022-08-23T08:39:00.781Z,40.71
2022-08-23T08:45:15.020Z,40.28
2022-08-23T08:51:45.367Z,39.82
2022-08-23T08:57:49.711Z,39.75
2022-08-23T09:03:52.526Z,38.73
2022-08-23T09:10:42.712Z,37.71
2022-08-23T09:16:57.592Z,37.25
2022-08-23T09:23:18.969Z,36.87
2022-08-23T09:29:33.000Z,34.93
2022-08-23T09:35:34.980Z,34.71
2022-08-23T09:41:42.148Z,33.98
2022-08-23T09:47:44.981Z,32.18
2022-08-23T09:53:51.700Z,34.74
2022-08-23T09:59:56.432Z,32.38
2022-08-23T10:06:01.559Z,30.76
2022-08-23T10:12:03.948Z,29.24
2022-08-23T10:18:51.329Z,29.04
2022-08-23T10:25:08.845Z,27.66
2022-08-23T10:31:31.402Z,26.59
2022-08-23T10:38:02.108Z,26.70
2022-08-23T10:44:46.420Z,24.49
2022-08-23T10:51:22.591Z,22.94
2022-08-23T10:57:34.189Z,22.79
2022-08-23T11:03:45.127Z,23.11
2022-08-23T11:10:05.830Z,21.72
2022-08-23T11:16:30.177Z,21.04
2022-08-23T11:22:54.538Z,19.80
2022-08-23T11:29:10.796Z,18.54
2022-08-23T11:35:43.243Z,18.47
2022-08-23T11:41:55.282Z,18.13
2022-08-23T11:48:21.907Z,17.27
2022-08-23T11:55:02.383Z,16.73
2022-08-23T12:01:13.121Z,16.95
2022-08-23T12:07:31.278Z,16.85
2022-08-23T12:14:01.618Z,16.04
2022-08-23T12:20:17.219Z,16.02
2022-08-23T12:26:47.307Z,16.76
2022-08-23T12:33:04.746Z,16.88
2022-08-23T12:39:40.230Z,17.27
2022-08-23T12:45:49.563Z,17.51
2022-08-23T12:51:54.785Z,17.48
2022-08-23T12:57:58.161Z,16.56
2022-08-23T13:04:12.818Z,18.39
2022-08-23T13:10:15.336Z,16.73
2022-08-23T13:16:38.450Z,17.62
2022-08-23T13:22:58.466Z,15.55
2022-08-23T13:29:10.043Z,17.32
2022-08-23T13:35:43.573Z,16.41
2022-08-23T13:41:46.644Z,15.95
2022-08-23T13:47:55.916Z,16.81
2022-08-23T13:54:03.734Z,16.36
2022-08-23T14:00:10.833Z,17.31
2022-08-23T14:06:13.637Z,15.88
2022-08-23T14:12:21.270Z,17.22
2022-08-23T14:18:23.504Z,16.40
2022-08-23T14:24:27.146Z,16.57
2022-08-23T14:30:34.264Z,17.37
2022-08-23T14:36:36.280Z,16.87
2022-08-23T14:42:38.341Z,16.79
2022-08-23T14:48:40.539Z,16.97
2022-08-23T14:54:43.232Z,16.11
2022-08-23T15:00:45.639Z,17.27
2022-08-23T15:07:14.139Z,19.31
2022-08-23T15:13:26.986Z,18.45
2022-08-23T15:19:30.730Z,19.88
2022-08-23T15:25:36.313Z,18.87
2022-08-23T15:31:38.343Z,18.76
2022-08-23T15:37:40.610Z,18.98
2022-08-23T15:43:45.962Z,19.29
2022-08-23T15:49:48.750Z,20.43
2022-08-23T15:55:52.015Z,19.58
2022-08-23T16:01:54.057Z,18.57
2022-08-23T16:07:58.025Z,18.60
2022-08-23T16:14:01.683Z,19.30
2022-08-23T16:20:06.402Z,19.60
2022-08-23T16:26:15.112Z,19.97
2022-08-23T16:32:17.798Z,18.52
2022-08-23T16:38:19.803Z,18.65
2022-08-23T16:44:21.902Z,18.58
2022-08-23T16:50:24.149Z,20.37
2022-08-23T16:56:26.121Z,19.92
2022-08-23T17:02:34.856Z,20.78
2022-08-23T17:08:37.446Z,20.63
2022-08-23T17:14:39.528Z,21.37
2022-08-23T17:20:42.077Z,23.26
2022-08-23T17:26:44.158Z,24.13
2022-08-23T17:32:50.483Z,25.68
2022-08-23T17:38:52.541Z,27.12
2022-08-23T17:44:54.551Z,28.04
2022-08-23T17:50:56.516Z,30.04
2022-08-23T17:57:00.652Z,31.66
2022-08-23T18:03:03.430Z,33.57
2022-08-23T18:09:06.945Z,35.90
2022-08-23T18:15:10.642Z,36.92
2022-08-23T18:21:13.037Z,38.72
2022-08-23T18:27:33.876Z,39.74
2022-08-23T18:33:38.452Z,41.34
2022-08-23T18:39:49.671Z,42.25
2022-08-23T18:45:55.219Z,42.14
2022-08-23T18:51:57.329Z,42.91
2022-08-23T18:57:59.610Z,45.71
2022-08-23T19:04:04.346Z,47.04
2022-08-23T19:10:07.144Z,47.19
2022-08-23T19:16:13.316Z,48.17
2022-08-23T19:22:15.420Z,49.46
2022-08-23T19:28:19.639Z,49.51
2022-08-23T19:34:22.859Z,49.17
2022-08-23T19:40:25.162Z,49.91
2022-08-23T19:46:27.266Z,49.08
2022-08-23T19:52:29.324Z,49.07
2022-08-23T19:58:31.634Z,48.85
2022-08-23T20:04:34.665Z,50.34
2022-08-23T20:10:36.644Z,51.15
2022-08-23T20:16:41.046Z,51.00
2022-08-23T20:23:02.675Z,51.62
2022-08-23T20:29:05.534Z,52.10
2022-08-23T20:35:11.231Z,53.03
2022-08-23T20:41:16.828Z,53.92
2022-08-23T20:47:19.325Z,53.97
2022-08-23T20:53:21.366Z,54.58
2022-08-23T20:59:24.680Z,54.25
2022-08-23T21:05:26.785Z,54.70
2022-08-23T21:11:29.837Z,55.45
2022-08-23T21:17:31.899Z,56.61
2022-08-23T21:23:35.307Z,56.84
2022-08-23T21:29:38.600Z,56.62
2022-08-23T21:35:40.600Z,57.36
2022-08-23T21:41:45.778Z,57.51
2022-08-23T21:47:47.904Z,57.87
2022-08-23T21:53:50.263Z,59.52
2022-08-23T21:59:53.173Z,60.21
2022-08-23T22:05:55.135Z,60.71
2022-08-23T22:11:58.021Z,62.20
2022-08-23T22:18:01.655Z,62.74
2022-08-23T22:24:05.476Z,63.72
2022-08-23T22:30:08.413Z,63.98
2022-08-23T22:36:20.418Z,64.98
2022-08-23T22:42:22.407Z,65.26
2022-08-23T22:48:25.946Z,66.41
2022-08-23T22:54:27.931Z,66.03
2022-08-23T23:00:29.900Z,65.82
2022-08-23T23:06:33.693Z,66.26
2022-08-23T23:12:35.685Z,66.95
2022-08-23T23:18:40.211Z,66.21
2022-08-23T23:24:42.291Z,67.75
2022-08-23T23:30:46.795Z,67.91
2022-08-23T23:36:48.836Z,69.74
2022-08-23T23:42:50.895Z,70.28
2022-08-23T23:48:53.244Z,70.01
2022-08-23T23:54:55.261Z,70.30
